• Join FlightAware (Why Join?)
  • Login
  • US Flag 
05:02PM EDT


 

Airport Tracker/Info


-or-


 

Live Flight TrackerFlight Track Log ✈ EGF1653 ✈ 11-Jun-2013 ✈ KRDU - KORD

Flight Track Log - Related Links

Times and Time Zones

All times are in EDT time to prevent confusion due to time zone crossing. See the EGF1653 flight status page for this flight to view local times or setup timezone preferences in your user account.

Time Position Orientation Groundspeed Altitude Reporting Facility
EDT Latitude Longitude Course Direction KTS MPH feet Rate Location/Type
02:22PM 36.0614 -79.0273 314° West  Level Estimated
02:23PM 36.1226 -79.1074 313° West  Level Estimated
02:24PM 36.1837 -79.1877 313° West  Level Estimated
02:25PM 36.2447 -79.2681 313° West  Level Estimated
02:26PM 36.3057 -79.3487 313° West  Level Estimated
02:27PM 36.3666 -79.4294 313° West  Level Estimated
02:28PM 36.4275 -79.5102 313° West  Level Estimated
02:29PM 36.4883 -79.5911 313° West  Level Estimated
02:30PM 36.5491 -79.6722 313° West  Level Estimated
02:31PM 36.6098 -79.7533 313° West  Level Estimated
02:32PM 36.6704 -79.8346 313° West  Level Estimated
02:33PM 36.7310 -79.9161 313° West  Level Estimated
02:34PM 36.7916 -79.9977 313° West  Level Estimated
02:35PM 36.8521 -80.0794 313° West  Level Estimated
02:36PM 36.9125 -80.1612 313° West  Level Estimated
02:37PM 36.9729 -80.2431 313° West  Level Estimated
02:38PM 37.0332 -80.3252 313° West  Level Estimated
02:39PM 37.0935 -80.4075 313° West  Level Estimated
02:40PM 37.1537 -80.4898 313° West  Level Estimated
02:41PM 37.2139 -80.5723 312° West  Level Estimated
02:42PM 37.2740 -80.6549 312° West  Level Estimated
02:43PM 37.3340 -80.7376 312° West  Level Estimated
02:44PM 37.3940 -80.8205 312° West  Level Estimated
02:45PM 37.4539 -80.9035 312° West  Level Estimated
02:46PM 37.5138 -80.9867 312° West  Level Estimated
02:47PM 37.5736 -81.0699 312° West  Level Estimated
02:48PM 37.6333 -81.1533 312° West  Level Estimated
02:49PM 37.6930 -81.2369 312° West  Level Estimated
02:50PM 37.7527 -81.3206 312° West  Level Estimated
02:51PM 37.8122 -81.4044 312° West  Level Estimated
02:52PM 37.8717 -81.4883 312° West  Level Estimated
02:53PM 37.9312 -81.5724 312° West  Level Estimated
02:54PM 37.9906 -81.6566 312° West  Level Estimated
02:55PM 38.0499 -81.7410 312° West  Level Estimated
02:56PM 38.1092 -81.8255 312° West  Level Estimated
02:57PM 38.1684 -81.9101 312° West  Level Estimated
02:58PM 38.2275 -81.9949 312° West  Level Estimated
02:59PM 38.2866 -82.0798 312° West  Level Estimated
03:00PM 38.3456 -82.1648 312° West  Level Estimated
03:01PM 38.4046 -82.2500 311° West  Level Estimated
03:02PM 38.4635 -82.3353 311° West  Level Estimated
03:03PM 38.5224 -82.4208 311° West  Level Estimated
03:04PM 38.5811 -82.5064 311° West  Level Estimated
03:05PM 38.6399 -82.5921 311° West  Level Estimated
03:06PM 38.6985 -82.6780 311° West  Level Estimated
03:07PM 38.7571 -82.7640 311° West  Level Estimated
03:08PM 38.8156 -82.8502 311° West  Level Estimated
03:09PM 38.8741 -82.9365 311° West  Level Estimated
03:10PM 38.9325 -83.0229 311° West  Level Estimated
03:11PM 38.9908 -83.1095 311° West  Level Estimated
03:12PM 39.0491 -83.1962 311° West  Level Estimated
03:13PM 39.1073 -83.2831 311° West  Level Estimated
03:14PM 39.1655 -83.3701 311° West  Level Estimated
03:15PM 39.2236 -83.4573 311° West  Level Estimated
03:16PM 39.2816 -83.5446 311° West  Level Estimated
03:17PM 39.3395 -83.6320 311° West  Level Estimated
03:18PM 39.3974 -83.7196 311° West  Level Estimated
03:19PM 39.4552 -83.8074 310° West  Level Estimated
03:20PM 39.5130 -83.8953 310° West  Level Estimated
03:21PM 39.5707 -83.9833 310° West  Level Estimated
03:22PM 39.6283 -84.0715 310° West  Level Estimated
03:23PM 39.6858 -84.1598 310° West  Level Estimated
03:24PM 39.7433 -84.2483 310° West  Level Estimated
03:25PM 39.8008 -84.3369 310° West  Level Estimated
03:26PM 39.8581 -84.4257 310° West  Level Estimated
03:27PM 39.9154 -84.5146 310° West  Level Estimated
03:28PM 39.9726 -84.6037 310° West  Level Estimated
03:29PM 40.0298 -84.6929 310° West  Level Estimated
03:30PM 40.0868 -84.7822 310° West  Level Estimated
03:31PM 40.1438 -84.8718 310° West  Level Estimated
03:32PM 40.2008 -84.9614 310° West  Level Estimated
03:33PM 40.2576 -85.0513 310° West  Level Estimated
03:34PM 40.3144 -85.1412 310° West  Level Estimated
03:35PM 40.3712 -85.2314 310° West  Level Estimated
03:36PM 40.4278 -85.3216 310° West  Level Estimated
03:37PM 40.4844 -85.4120 309° West  Level Estimated
03:38PM 40.5410 -85.5026 309° West  Level Estimated
03:39PM 40.5974 -85.5933 309° West  Level Estimated
03:40PM 40.6538 -85.6842 309° West  Level Estimated
03:41PM 40.7101 -85.7753 309° West  Level Estimated
03:42PM 40.7663 -85.8664 309° West  Level Estimated
03:43PM 40.8225 -85.9578 309° West  Level Estimated
03:44PM 40.8786 -86.0493 309° West  Level Estimated
03:45PM 40.9346 -86.1409 309° West  Level Estimated
03:46PM 40.9906 -86.2327 309° West  Level Estimated
03:47PM 41.0464 -86.3247 309° West  Level Estimated
03:48PM 41.1022 -86.4168 309° West  Level Estimated
03:49PM 41.1580 -86.5091 309° West  Level Estimated
03:50PM 41.2136 -86.6015 309° West  Level Estimated
03:51PM 41.2692 -86.6941 309° West  Level Estimated
03:52PM 41.3247 -86.7869 309° West  Level Estimated
03:53PM 41.3801 -86.8798 309° West  Level Estimated
03:54PM 41.4355 -86.9728 308° West  Level Estimated
03:55PM 41.4908 -87.0661 308° West  Level Estimated
03:56PM 41.5460 -87.1594 308° West  Level Estimated
03:57PM 41.6011 -87.2530 308° West  Level Estimated
03:58PM 41.6562 -87.3467 308° West  Level Estimated
03:59PM 41.7111 -87.4405 308° West  Level Estimated
04:00PM 41.7660 -87.5346 308° West  Level Estimated
04:01PM 41.8209 -87.6287 308° West  Level Estimated
04:02PM 41.8756 -87.7231 308° West  Level Estimated
04:03PM 41.9303 -87.8176 308° West  Level Estimated